Terminal Aerodrome Forecast
Issued by NWS Des Moines, IA

Home | Current Version | Previous Version | Text Only | Print | Product List | Glossary On
Versions: 1 2 3 4 5 6 7 8 9 10 11 12 13 14 15 16 17 18 19 20 21 22 23 24
000
FTUS43 KDMX 011416 AAA
TAFDSM
TAF AMD
KDSM 011416Z 0114/0212 06008KT P6SM VCSH OVC005
      TEMPO 0114/0117 4SM -SHRA
     FM011700 03012KT 3SM -SHRA BR OVC007
     FM012200 01012KT 6SM BR VCSH OVC010
     FM020100 35007KT P6SM OVC040
     FM021000 02004KT 5SM BR SCT005 BKN025=

USA.gov is the U.S. government's official web portal to all federal, state and local government web resources and services.